Terminal Aerodrome Forecast
Issued by NWS Mt. Holly, NJ

Home | Current Version | Previous Version | Text Only | Print | Product List | Glossary On
Versions: 1 2 3 4 5 6 7 8 9 10 11 12 13 14 15 16 17 18 19
000
FTUS41 KPHI 081731
TAFACY
TAF
KACY 081731Z 0818/0918 02012G20KT P6SM BKN025 OVC050
     FM082200 03011KT P6SM OVC015
     FM090600 07007KT 4SM -SN OVC009
     FM090800 06010G18KT 2SM -SN BR OVC007
     FM091300 04012G20KT 1SM -SN BR OVC005=

USA.gov is the U.S. government's official web portal to all federal, state and local government web resources and services.